createdAt,value
2022-08-30T00:01:00.792Z,102338.19
2022-08-30T00:03:27.527Z,102334.25
2022-08-30T00:05:56.216Z,102341.13
2022-08-30T00:08:23.061Z,102339.84
2022-08-30T00:10:51.216Z,102337.53
2022-08-30T00:13:19.519Z,102333.19
2022-08-30T00:15:46.749Z,102334.66
2022-08-30T00:18:13.409Z,102336.75
2022-08-30T00:20:40.340Z,102337.56
2022-08-30T00:23:07.402Z,102335.97
2022-08-30T00:25:34.475Z,102329.75
2022-08-30T00:28:02.518Z,102338.72
2022-08-30T00:30:28.913Z,102332.84
2022-08-30T00:32:55.576Z,102337.66
2022-08-30T00:35:22.671Z,102330.84
2022-08-30T00:37:50.863Z,102326.56
2022-08-30T00:40:20.335Z,102330.41
2022-08-30T00:42:59.598Z,102325.63
2022-08-30T00:45:30.513Z,102325.81
2022-08-30T00:47:57.930Z,102315.84
2022-08-30T00:50:31.085Z,102323.16
2022-08-30T00:53:01.323Z,102333.50
2022-08-30T00:55:29.210Z,102327.84
2022-08-30T00:58:00.178Z,102334.16
2022-08-30T01:00:28.517Z,102339.03
2022-08-30T01:02:55.331Z,102335.72
2022-08-30T01:05:22.022Z,102338.38
2022-08-30T01:07:48.469Z,102339.38
2022-08-30T01:10:16.526Z,102344.13
2022-08-30T01:12:43.914Z,102336.16
2022-08-30T01:15:14.467Z,102336.88
2022-08-30T01:17:44.999Z,102336.34
2022-08-30T01:20:15.600Z,102341.00
2022-08-30T01:22:51.116Z,102345.41
2022-08-30T01:25:29.928Z,102344.13
2022-08-30T01:28:04.587Z,102344.47
2022-08-30T01:30:32.479Z,102347.13
2022-08-30T01:33:02.967Z,102343.00
2022-08-30T01:35:35.228Z,102333.03
2022-08-30T01:38:02.070Z,102334.69
2022-08-30T01:40:28.537Z,102340.88
2022-08-30T01:42:55.174Z,102340.06
2022-08-30T01:45:21.781Z,102351.50
2022-08-30T01:47:48.286Z,102347.03
2022-08-30T01:50:14.876Z,102349.22
2022-08-30T01:52:41.914Z,102353.88
2022-08-30T01:55:09.136Z,102353.41
2022-08-30T01:57:35.699Z,102349.94
2022-08-30T02:00:02.465Z,102352.88
2022-08-30T02:02:29.633Z,102356.34
2022-08-30T02:04:56.981Z,102353.06
2022-08-30T02:07:25.133Z,102349.41
2022-08-30T02:09:53.093Z,102352.22
2022-08-30T02:12:20.907Z,102355.06
2022-08-30T02:14:47.758Z,102350.78
2022-08-30T02:17:17.044Z,102350.31
2022-08-30T02:19:43.669Z,102348.66
2022-08-30T02:22:11.037Z,102346.00
2022-08-30T02:24:38.031Z,102342.22
2022-08-30T02:27:04.763Z,102342.88
2022-08-30T02:29:31.454Z,102342.03
2022-08-30T02:31:57.928Z,102347.53
2022-08-30T02:34:24.567Z,102345.25
2022-08-30T02:36:51.149Z,102342.94
2022-08-30T02:39:17.749Z,102339.81
2022-08-30T02:41:44.404Z,102346.13
2022-08-30T02:44:11.400Z,102341.19
2022-08-30T02:46:38.611Z,102335.25
2022-08-30T02:49:32.486Z,102336.41
2022-08-30T02:51:53.814Z,102339.41
2022-08-30T02:54:20.334Z,102331.66
2022-08-30T02:56:48.407Z,102337.78
2022-08-30T02:59:16.231Z,102329.81
2022-08-30T03:01:42.731Z,102329.53
2022-08-30T03:04:09.868Z,102330.53
2022-08-30T03:06:36.815Z,102322.91
2022-08-30T03:09:03.658Z,102325.09
2022-08-30T03:11:30.143Z,102327.28
2022-08-30T03:13:56.653Z,102325.63
2022-08-30T03:16:23.286Z,102324.31
2022-08-30T03:18:49.763Z,102318.53
2022-08-30T03:21:16.865Z,102318.88
2022-08-30T03:23:43.933Z,102319.41
2022-08-30T03:26:13.139Z,102319.97
2022-08-30T03:28:39.672Z,102323.13
2022-08-30T03:31:06.444Z,102321.66
2022-08-30T03:33:32.904Z,102321.81
2022-08-30T03:35:59.390Z,102322.19
2022-08-30T03:38:26.130Z,102324.38
2022-08-30T03:40:52.703Z,102327.84
2022-08-30T03:43:19.399Z,102325.34
2022-08-30T03:45:46.263Z,102325.19
2022-08-30T03:48:13.021Z,102327.34
2022-08-30T03:50:40.577Z,102319.75
2022-08-30T03:53:07.264Z,102312.97
2022-08-30T03:55:34.148Z,102323.91
2022-08-30T03:58:00.698Z,102332.03
2022-08-30T04:00:27.512Z,102332.38
2022-08-30T04:02:54.150Z,102324.97
2022-08-30T04:05:20.986Z,102317.34
2022-08-30T04:07:47.428Z,102325.50
2022-08-30T04:10:14.187Z,102314.41
2022-08-30T04:12:40.753Z,102325.16
2022-08-30T04:15:09.478Z,102321.88
2022-08-30T04:17:36.141Z,102329.16
2022-08-30T04:20:02.956Z,102329.69
2022-08-30T04:22:29.435Z,102333.81
2022-08-30T04:24:55.885Z,102330.06
2022-08-30T04:27:22.603Z,102319.63
2022-08-30T04:29:49.598Z,102325.78
2022-08-30T04:32:17.057Z,102333.53
2022-08-30T04:34:44.068Z,102331.56
2022-08-30T04:37:10.565Z,102328.72
2022-08-30T04:39:37.237Z,102334.69
2022-08-30T04:42:04.207Z,102341.63
2022-08-30T04:44:32.138Z,102336.47
2022-08-30T04:46:59.085Z,102341.97
2022-08-30T04:49:25.776Z,102345.63
2022-08-30T04:51:52.262Z,102340.13
2022-08-30T04:54:18.812Z,102343.78
2022-08-30T04:56:45.528Z,102347.44
2022-08-30T04:59:12.053Z,102348.41
2022-08-30T05:01:45.442Z,102349.22
2022-08-30T05:04:13.821Z,102355.38
2022-08-30T05:06:40.555Z,102351.72
2022-08-30T05:09:07.206Z,102347.25
2022-08-30T05:11:33.747Z,102346.09
2022-08-30T05:14:00.343Z,102357.31
2022-08-30T05:16:27.279Z,102361.66
2022-08-30T05:18:54.608Z,102366.09
2022-08-30T05:21:25.442Z,102367.44
2022-08-30T05:23:56.010Z,102366.13
2022-08-30T05:26:26.507Z,102363.47
2022-08-30T05:28:53.524Z,102364.47
2022-08-30T05:31:24.114Z,102366.94
2022-08-30T05:33:52.400Z,102372.09
2022-08-30T05:36:21.065Z,102371.91
2022-08-30T05:38:47.642Z,102375.84
2022-08-30T05:41:14.500Z,102376.19
2022-08-30T05:43:41.012Z,102380.16
2022-08-30T05:46:10.638Z,102378.97
2022-08-30T05:48:38.097Z,102383.75
2022-08-30T05:51:09.224Z,102386.72
2022-08-30T05:53:36.240Z,102388.84
2022-08-30T05:56:05.621Z,102386.34
2022-08-30T05:58:32.768Z,102392.78
2022-08-30T06:00:59.973Z,102387.09
2022-08-30T06:03:27.277Z,102384.78
2022-08-30T06:05:53.995Z,102383.44
2022-08-30T06:08:21.235Z,102391.53
2022-08-30T06:10:47.984Z,102384.88
2022-08-30T06:13:14.900Z,102381.69
2022-08-30T06:15:45.071Z,102388.13
2022-08-30T06:18:14.755Z,102379.63
2022-08-30T06:20:47.482Z,102387.75
2022-08-30T06:23:17.970Z,102373.16
2022-08-30T06:25:44.900Z,102374.25
2022-08-30T06:28:12.261Z,102376.19
2022-08-30T06:30:41.683Z,102376.31
2022-08-30T06:33:08.573Z,102386.59
2022-08-30T06:35:46.719Z,102382.56
2022-08-30T06:38:18.911Z,102388.00
2022-08-30T06:40:45.641Z,102394.03
2022-08-30T06:43:12.174Z,102384.53
2022-08-30T06:45:38.669Z,102391.97
2022-08-30T06:48:05.114Z,102383.28
2022-08-30T06:50:31.993Z,102390.34
2022-08-30T06:53:04.385Z,102393.91
2022-08-30T06:55:33.261Z,102395.03
2022-08-30T06:58:00.886Z,102401.28
2022-08-30T07:00:28.016Z,102397.16
2022-08-30T07:02:54.979Z,102386.94
2022-08-30T07:05:23.595Z,102391.78
2022-08-30T07:07:56.014Z,102392.78
2022-08-30T07:10:22.505Z,102387.28
2022-08-30T07:12:49.369Z,102391.09
2022-08-30T07:15:16.565Z,102388.38
2022-08-30T07:18:01.436Z,102385.03
2022-08-30T07:20:27.886Z,102386.81
2022-08-30T07:23:06.700Z,102380.84
2022-08-30T07:25:33.254Z,102389.94
2022-08-30T07:27:59.773Z,102385.13
2022-08-30T07:30:26.303Z,102382.13
2022-08-30T07:32:52.820Z,102379.78
2022-08-30T07:35:19.254Z,102380.22
2022-08-30T07:37:45.722Z,102386.03
2022-08-30T07:40:12.734Z,102387.13
2022-08-30T07:42:41.093Z,102391.25
2022-08-30T07:45:08.676Z,102389.06
2022-08-30T07:47:35.247Z,102380.91
2022-08-30T07:50:02.424Z,102386.50
2022-08-30T07:52:30.819Z,102381.81
2022-08-30T07:54:59.146Z,102379.81
2022-08-30T07:57:26.514Z,102380.88
2022-08-30T07:59:53.315Z,102386.41
2022-08-30T08:02:20.505Z,102391.97
2022-08-30T08:04:48.517Z,102392.84
2022-08-30T08:07:15.327Z,102396.94
2022-08-30T08:09:41.858Z,102390.41
2022-08-30T08:12:08.734Z,102397.78
2022-08-30T08:14:36.156Z,102400.25
2022-08-30T08:17:02.882Z,102405.59
2022-08-30T08:19:29.384Z,102390.66
2022-08-30T08:22:19.423Z,102381.00
2022-08-30T08:24:43.704Z,102405.22
2022-08-30T08:27:10.170Z,102393.38
2022-08-30T08:29:36.706Z,102394.81
2022-08-30T08:32:03.505Z,102398.50
2022-08-30T08:34:30.031Z,102398.75
2022-08-30T08:36:56.518Z,102398.94
2022-08-30T08:39:23.016Z,102399.13
2022-08-30T08:42:04.040Z,102399.94
2022-08-30T08:44:50.656Z,102396.25
2022-08-30T08:47:38.615Z,102400.38
2022-08-30T08:50:17.467Z,102388.22
2022-08-30T08:53:10.812Z,102390.28
2022-08-30T08:55:50.434Z,102394.34
2022-08-30T08:58:28.467Z,102392.91
2022-08-30T09:00:56.734Z,102388.97
2022-08-30T09:03:24.901Z,102383.81
2022-08-30T09:05:51.489Z,102384.84
2022-08-30T09:08:19.853Z,102388.91
2022-08-30T09:10:58.865Z,102385.00
2022-08-30T09:13:26.505Z,102388.69
2022-08-30T09:15:55.934Z,102389.69
2022-08-30T09:18:48.987Z,102385.56
2022-08-30T09:21:25.848Z,102380.22
2022-08-30T09:24:06.854Z,102391.31
2022-08-30T09:26:38.218Z,102390.59
2022-08-30T09:29:05.839Z,102386.25
2022-08-30T09:31:34.166Z,102396.47
2022-08-30T09:34:09.733Z,102401.16
2022-08-30T09:36:51.832Z,102386.78
2022-08-30T09:39:31.348Z,102391.06
2022-08-30T09:42:14.258Z,102389.22
2022-08-30T09:44:40.756Z,102387.41
2022-08-30T09:47:31.811Z,102387.13
2022-08-30T09:50:15.436Z,102390.66
2022-08-30T09:52:50.948Z,102388.75
2022-08-30T09:55:33.193Z,102389.06
2022-08-30T09:58:08.759Z,102391.53
2022-08-30T10:00:55.899Z,102392.06
2022-08-30T10:03:46.864Z,102392.47
2022-08-30T10:06:36.651Z,102394.53
2022-08-30T10:09:09.030Z,102389.00
2022-08-30T10:11:56.626Z,102395.66
2022-08-30T10:14:54.972Z,102395.66
2022-08-30T10:17:38.938Z,102384.88
2022-08-30T10:20:17.084Z,102392.66
2022-08-30T10:23:02.355Z,102389.97
2022-08-30T10:25:34.737Z,102391.41
2022-08-30T10:28:14.628Z,102385.94
2022-08-30T10:30:44.335Z,102392.25
2022-08-30T10:33:36.903Z,102389.22
2022-08-30T10:36:10.270Z,102387.66
2022-08-30T10:38:40.599Z,102387.66
2022-08-30T10:41:22.289Z,102391.44
2022-08-30T10:44:11.902Z,102387.19
2022-08-30T10:47:14.302Z,102390.34
2022-08-30T10:49:55.546Z,102395.03
2022-08-30T10:52:38.965Z,102390.66
2022-08-30T10:55:08.504Z,102389.66
2022-08-30T10:57:36.481Z,102375.78
2022-08-30T11:00:11.912Z,102380.47
2022-08-30T11:02:59.029Z,102383.03
2022-08-30T11:05:44.399Z,102374.97
2022-08-30T11:08:41.098Z,102371.78
2022-08-30T11:11:24.855Z,102372.81
2022-08-30T11:13:56.906Z,102370.47
2022-08-30T11:16:36.458Z,102372.91
2022-08-30T11:19:12.246Z,102373.03
2022-08-30T11:21:41.832Z,102374.19
2022-08-30T11:24:15.876Z,102369.00
2022-08-30T11:26:45.388Z,102375.44
2022-08-30T11:29:27.559Z,102366.00
2022-08-30T11:31:59.715Z,102369.72
2022-08-30T11:34:45.486Z,102369.00
2022-08-30T11:37:37.509Z,102374.25
2022-08-30T11:40:04.349Z,102361.84
2022-08-30T11:42:35.401Z,102356.88
2022-08-30T11:45:25.005Z,102361.13
2022-08-30T11:47:59.830Z,102354.53
2022-08-30T11:50:35.864Z,102360.59
2022-08-30T11:53:05.588Z,102353.81
2022-08-30T11:55:42.607Z,102349.31
2022-08-30T11:58:30.333Z,102351.78
2022-08-30T12:01:40.918Z,102352.59
2022-08-30T12:04:15.246Z,102350.72
2022-08-30T12:06:41.945Z,102342.41
2022-08-30T12:09:35.364Z,102342.78
2022-08-30T12:12:24.108Z,102336.97
2022-08-30T12:14:54.637Z,102336.59
2022-08-30T12:17:42.105Z,102342.81
2022-08-30T12:20:30.842Z,102340.66
2022-08-30T12:23:09.692Z,102335.38
2022-08-30T12:25:36.239Z,102337.56
2022-08-30T12:28:16.332Z,102329.09
2022-08-30T12:30:43.935Z,102335.19
2022-08-30T12:33:24.086Z,102331.78
2022-08-30T12:35:58.242Z,102328.03
2022-08-30T12:38:27.474Z,102324.84
2022-08-30T12:40:58.186Z,102319.84
2022-08-30T12:43:40.445Z,102323.50
2022-08-30T12:46:12.520Z,102331.25
2022-08-30T12:48:42.882Z,102330.13
2022-08-30T12:51:25.707Z,102322.09
2022-08-30T12:53:52.404Z,102322.03
2022-08-30T12:56:30.432Z,102323.00
2022-08-30T12:59:05.931Z,102335.31
2022-08-30T13:01:35.681Z,102325.84
2022-08-30T13:04:22.085Z,102324.81
2022-08-30T13:06:55.981Z,102319.03
2022-08-30T13:09:33.935Z,102320.66
2022-08-30T13:12:03.185Z,102311.38
2022-08-30T13:14:33.928Z,102306.47
2022-08-30T13:17:25.702Z,102304.50
2022-08-30T13:19:57.294Z,102300.59
2022-08-30T13:22:31.730Z,102297.56
2022-08-30T13:24:59.140Z,102303.13
2022-08-30T13:27:26.789Z,102306.88
2022-08-30T13:29:53.712Z,102299.78
2022-08-30T13:32:21.183Z,102302.94
2022-08-30T13:34:47.810Z,102299.53
2022-08-30T13:40:13.378Z,102290.63
2022-08-30T13:42:42.996Z,102298.69
2022-08-30T13:47:57.706Z,102295.56
2022-08-30T13:50:24.251Z,102281.19
2022-08-30T13:52:52.247Z,102284.03
2022-08-30T13:55:18.750Z,102291.81
2022-08-30T13:57:54.391Z,102288.06
2022-08-30T14:00:22.359Z,102282.50
2022-08-30T14:02:54.259Z,102288.50
2022-08-30T14:11:07.005Z,102277.06
2022-08-30T14:13:33.835Z,102287.69
2022-08-30T14:18:51.241Z,102286.88
2022-08-30T14:21:18.031Z,102281.59
2022-08-30T14:23:48.313Z,102285.59
2022-08-30T14:26:22.546Z,102270.19
2022-08-30T14:28:51.576Z,102277.09
2022-08-30T14:31:19.979Z,102284.00
2022-08-30T14:33:47.114Z,102288.91
2022-08-30T14:36:15.280Z,102273.75
2022-08-30T14:38:42.987Z,102282.47
2022-08-30T14:41:10.809Z,102270.63
2022-08-30T14:43:39.640Z,102269.28
2022-08-30T14:46:06.332Z,102269.66
2022-08-30T14:48:32.885Z,102268.19
2022-08-30T14:50:59.466Z,102272.59
2022-08-30T14:53:26.439Z,102274.97
2022-08-30T14:55:52.969Z,102273.25
2022-08-30T14:58:19.521Z,102273.16
2022-08-30T15:00:52.856Z,102268.75
2022-08-30T15:03:19.586Z,102277.03
2022-08-30T15:05:52.869Z,102270.78
2022-08-30T15:08:19.911Z,102275.59
2022-08-30T15:10:47.429Z,102269.72
2022-08-30T15:13:14.734Z,102272.50
2022-08-30T15:15:44.275Z,102255.75
2022-08-30T15:18:10.887Z,102263.41
2022-08-30T15:20:37.833Z,102252.16
2022-08-30T15:23:05.004Z,102254.78
2022-08-30T15:25:31.906Z,102256.81
2022-08-30T15:27:58.555Z,102264.63
2022-08-30T15:30:25.234Z,102253.63
2022-08-30T15:32:51.940Z,102259.59
2022-08-30T15:35:18.703Z,102257.47
2022-08-30T15:37:45.414Z,102250.69
2022-08-30T15:40:12.646Z,102239.34
2022-08-30T15:42:39.901Z,102241.81
2022-08-30T15:45:09.589Z,102232.34
2022-08-30T15:47:36.365Z,102230.72
2022-08-30T15:50:06.595Z,102227.53
2022-08-30T15:52:33.756Z,102226.38
2022-08-30T15:55:00.300Z,102223.75
2022-08-30T15:57:26.858Z,102235.00
2022-08-30T15:59:54.673Z,102235.16
2022-08-30T16:02:22.228Z,102239.16
2022-08-30T16:04:54.338Z,102239.50
2022-08-30T16:07:20.868Z,102235.66
2022-08-30T16:09:47.484Z,102239.25
2022-08-30T16:12:22.315Z,102231.94
2022-08-30T16:14:50.819Z,102230.84
2022-08-30T16:17:17.555Z,102231.94
2022-08-30T16:19:44.958Z,102231.59
2022-08-30T16:22:11.787Z,102226.44
2022-08-30T16:24:38.799Z,102230.19
2022-08-30T16:27:05.753Z,102225.06
2022-08-30T16:29:35.474Z,102223.19
2022-08-30T16:32:02.109Z,102213.16
2022-08-30T16:34:28.755Z,102221.44
2022-08-30T16:36:55.427Z,102218.66
2022-08-30T16:39:22.292Z,102221.25
2022-08-30T16:41:48.930Z,102217.41
2022-08-30T16:44:17.925Z,102219.53
2022-08-30T16:46:53.367Z,102216.38
2022-08-30T16:49:20.908Z,102222.97
2022-08-30T16:51:49.697Z,102220.44
2022-08-30T16:54:19.864Z,102218.91
2022-08-30T16:56:46.432Z,102212.16
2022-08-30T16:59:13.691Z,102212.38
2022-08-30T17:01:42.413Z,102221.63
2022-08-30T17:04:09.737Z,102215.31
2022-08-30T17:06:37.086Z,102213.47
2022-08-30T17:09:07.786Z,102220.81
2022-08-30T17:11:36.023Z,102220.22
2022-08-30T17:14:03.640Z,102218.59
2022-08-30T17:16:30.330Z,102215.78
2022-08-30T17:19:00.350Z,102213.94
2022-08-30T17:21:28.829Z,102215.69
2022-08-30T17:24:01.371Z,102217.41
2022-08-30T17:26:29.359Z,102214.88
2022-08-30T17:28:55.939Z,102223.94
2022-08-30T17:31:22.574Z,102221.59
2022-08-30T17:33:50.031Z,102219.16
2022-08-30T17:36:16.536Z,102215.94
2022-08-30T17:38:45.071Z,102219.78
2022-08-30T17:41:29.378Z,102225.75
2022-08-30T17:43:58.393Z,102232.13
2022-08-30T17:46:25.299Z,102237.50
2022-08-30T17:48:58.047Z,102235.84
2022-08-30T17:51:29.703Z,102226.38
2022-08-30T17:53:56.654Z,102238.94
2022-08-30T17:56:24.321Z,102238.81
2022-08-30T17:59:00.879Z,102237.22
2022-08-30T18:01:28.225Z,102240.16
2022-08-30T18:04:01.826Z,102245.38
2022-08-30T18:06:28.754Z,102247.53
2022-08-30T18:08:55.441Z,102247.38
2022-08-30T18:11:22.056Z,102246.63
2022-08-30T18:13:48.490Z,102251.50
2022-08-30T18:16:15.055Z,102251.69
2022-08-30T18:18:49.976Z,102268.00
2022-08-30T18:21:22.008Z,102265.53
2022-08-30T18:23:50.010Z,102269.56
2022-08-30T18:26:18.970Z,102271.72
2022-08-30T18:28:50.700Z,102270.34
2022-08-30T18:31:17.301Z,102275.09
2022-08-30T18:33:44.681Z,102277.78
2022-08-30T18:36:11.908Z,102278.44
2022-08-30T18:38:39.379Z,102283.66
2022-08-30T18:41:08.888Z,102279.97
2022-08-30T18:43:36.780Z,102283.09
2022-08-30T18:46:06.342Z,102285.84
2022-08-30T18:48:34.284Z,102282.38
2022-08-30T18:51:01.891Z,102281.00
2022-08-30T18:53:29.438Z,102288.06
2022-08-30T18:55:57.170Z,102286.22
2022-08-30T18:58:23.680Z,102293.06
2022-08-30T19:00:50.757Z,102293.75
2022-08-30T19:03:18.768Z,102300.56
2022-08-30T19:05:45.276Z,102298.53
2022-08-30T19:08:11.801Z,102298.19
2022-08-30T19:10:38.412Z,102296.75
2022-08-30T19:13:06.287Z,102297.78
2022-08-30T19:15:36.463Z,102292.25
2022-08-30T19:18:16.679Z,102300.34
2022-08-30T19:20:45.222Z,102297.28
2022-08-30T19:23:12.215Z,102306.13
2022-08-30T19:25:41.830Z,102310.03
2022-08-30T19:28:09.276Z,102304.28
2022-08-30T19:30:36.219Z,102304.09
2022-08-30T19:33:03.142Z,102304.94
2022-08-30T19:35:30.130Z,102311.97
2022-08-30T19:37:56.999Z,102307.44
2022-08-30T19:40:23.561Z,102314.25
2022-08-30T19:42:52.268Z,102311.78
2022-08-30T19:45:21.647Z,102308.72
2022-08-30T19:47:49.459Z,102318.38
2022-08-30T19:50:16.780Z,102313.47
2022-08-30T19:52:44.604Z,102324.34
2022-08-30T19:55:13.534Z,102313.25
2022-08-30T19:57:42.962Z,102315.53
2022-08-30T20:00:11.244Z,102315.75
2022-08-30T20:02:38.629Z,102315.75
2022-08-30T20:05:05.760Z,102316.56
2022-08-30T20:07:36.071Z,102315.97
2022-08-30T20:10:09.813Z,102320.69
2022-08-30T20:12:37.165Z,102327.06
2022-08-30T20:15:09.239Z,102322.13
2022-08-30T20:18:01.947Z,102322.75
2022-08-30T20:20:23.588Z,102323.75
2022-08-30T20:22:54.251Z,102329.53
2022-08-30T20:25:21.772Z,102326.59
2022-08-30T20:27:49.166Z,102322.50
2022-08-30T20:30:17.447Z,102335.84
2022-08-30T20:32:46.596Z,102331.53
2022-08-30T20:35:15.077Z,102331.28
2022-08-30T20:37:43.275Z,102339.09
2022-08-30T20:40:15.539Z,102335.63
2022-08-30T20:42:44.467Z,102339.28
2022-08-30T20:45:13.833Z,102338.06
2022-08-30T20:47:41.758Z,102347.06
2022-08-30T20:50:13.423Z,102341.94
2022-08-30T20:52:40.500Z,102340.06
2022-08-30T20:55:07.988Z,102356.50
2022-08-30T20:57:34.597Z,102356.06
2022-08-30T21:00:01.775Z,102353.81
2022-08-30T21:02:28.486Z,102351.13
2022-08-30T21:04:55.072Z,102349.47
2022-08-30T21:07:21.614Z,102349.66
2022-08-30T21:09:48.156Z,102349.66
2022-08-30T21:12:14.684Z,102350.47
2022-08-30T21:14:41.177Z,102353.56
2022-08-30T21:17:07.787Z,102359.47
2022-08-30T21:19:34.323Z,102354.53
2022-08-30T21:22:01.683Z,102363.94
2022-08-30T21:24:28.174Z,102366.63
2022-08-30T21:26:55.782Z,102366.56
2022-08-30T21:29:22.562Z,102363.47
2022-08-30T21:31:49.048Z,102358.53
2022-08-30T21:34:17.424Z,102373.47
2022-08-30T21:36:47.349Z,102366.66
2022-08-30T21:39:26.515Z,102373.00
2022-08-30T21:41:57.030Z,102369.50
2022-08-30T21:44:26.233Z,102375.88
2022-08-30T21:46:54.954Z,102376.03
2022-08-30T21:49:23.579Z,102373.97
2022-08-30T21:51:52.419Z,102385.81
2022-08-30T21:54:19.561Z,102388.88
2022-08-30T21:56:47.929Z,102386.41
2022-08-30T21:59:14.805Z,102383.91
2022-08-30T22:01:43.168Z,102387.78
2022-08-30T22:04:10.761Z,102381.41
2022-08-30T22:06:39.986Z,102384.22
2022-08-30T22:09:09.659Z,102391.13
2022-08-30T22:11:36.965Z,102392.53
2022-08-30T22:14:05.511Z,102391.50
2022-08-30T22:16:32.683Z,102387.22
2022-08-30T22:18:59.443Z,102386.69
2022-08-30T22:21:29.048Z,102395.91
2022-08-30T22:23:56.251Z,102387.28
2022-08-30T22:26:24.388Z,102383.16
2022-08-30T22:28:52.439Z,102383.94
2022-08-30T22:31:19.716Z,102390.47
2022-08-30T22:33:47.966Z,102383.94
2022-08-30T22:36:19.065Z,102388.19
2022-08-30T22:38:45.656Z,102392.22
2022-08-30T22:41:17.047Z,102392.41
2022-08-30T22:43:44.403Z,102394.06
2022-08-30T22:46:11.799Z,102396.63
2022-08-30T22:48:41.263Z,102393.91
2022-08-30T22:51:08.277Z,102391.00
2022-08-30T22:53:35.308Z,102391.38
2022-08-30T22:56:10.570Z,102398.72
2022-08-30T22:58:37.498Z,102389.28
2022-08-30T23:01:05.510Z,102406.00
2022-08-30T23:03:32.650Z,102402.72
2022-08-30T23:06:01.697Z,102397.75
2022-08-30T23:08:28.454Z,102403.44
2022-08-30T23:10:57.860Z,102403.19
2022-08-30T23:13:25.006Z,102400.09
2022-08-30T23:15:51.785Z,102401.91
2022-08-30T23:18:18.433Z,102397.97
2022-08-30T23:20:45.469Z,102400.56
2022-08-30T23:23:30.874Z,102399.47
2022-08-30T23:26:19.364Z,102401.03
2022-08-30T23:29:04.729Z,102395.88
2022-08-30T23:31:49.876Z,102392.88
2022-08-30T23:34:34.945Z,102402.03
2022-08-30T23:37:19.757Z,102398.56
2022-08-30T23:40:04.862Z,102399.28
2022-08-30T23:42:49.924Z,102397.19
2022-08-30T23:45:35.678Z,102397.53
2022-08-30T23:48:20.905Z,102395.28
2022-08-30T23:51:06.098Z,102400.41
2022-08-30T23:53:51.121Z,102400.97
2022-08-30T23:56:36.641Z,102405.63
2022-08-30T23:59:21.812Z,102415.63
